createdAt,value
2023-03-17T00:01:43.859Z,150236.19
2023-03-17T00:04:13.094Z,150271.50
2023-03-17T00:06:40.668Z,150247.56
2023-03-17T00:09:14.207Z,150245.06
2023-03-17T00:11:40.900Z,150258.94
2023-03-17T00:14:07.260Z,150245.06
2023-03-17T00:16:39.087Z,150247.56
2023-03-17T00:19:05.500Z,150238.75
2023-03-17T00:21:33.484Z,150228.66
2023-03-17T00:24:00.595Z,150241.28
2023-03-17T00:26:27.782Z,150247.56
2023-03-17T00:28:54.366Z,150262.72
2023-03-17T00:31:23.104Z,150255.16
2023-03-17T00:33:51.547Z,150262.72
2023-03-17T00:36:20.709Z,150247.56
2023-03-17T00:38:46.739Z,150265.22
2023-03-17T00:41:13.053Z,150246.31
2023-03-17T00:43:39.642Z,150245.06
2023-03-17T00:46:18.951Z,150231.16
2023-03-17T00:48:45.253Z,150224.88
2023-03-17T00:51:11.985Z,150228.66
2023-03-17T00:53:38.000Z,150237.50
2023-03-17T00:56:10.576Z,150216.03
2023-03-17T00:58:38.691Z,150209.72
2023-03-17T01:01:04.520Z,150204.69
2023-03-17T01:03:32.308Z,150218.53
2023-03-17T01:05:59.771Z,150214.75
2023-03-17T01:08:26.301Z,150213.50
2023-03-17T01:10:52.308Z,150214.75
2023-03-17T01:13:18.174Z,150242.53
2023-03-17T01:15:46.111Z,150222.34
2023-03-17T01:18:20.636Z,150243.78
2023-03-17T01:20:47.014Z,150224.88
2023-03-17T01:23:13.142Z,150217.28
2023-03-17T01:25:40.714Z,150176.94
2023-03-17T01:28:07.156Z,150164.31
2023-03-17T01:30:38.540Z,150151.72
2023-03-17T01:33:07.740Z,150156.75
2023-03-17T01:35:34.626Z,150187.03
2023-03-17T01:38:00.745Z,150181.97
2023-03-17T01:40:31.396Z,150187.03
2023-03-17T01:43:26.790Z,150200.88
2023-03-17T01:46:25.462Z,150190.81
2023-03-17T01:49:19.345Z,150175.69
2023-03-17T01:52:10.978Z,150179.44
2023-03-17T01:54:54.979Z,150211.00
2023-03-17T01:57:27.811Z,150223.63
2023-03-17T02:00:07.336Z,150232.41
2023-03-17T02:02:37.019Z,150234.94
2023-03-17T02:05:06.606Z,150223.63
2023-03-17T02:07:33.268Z,150241.28
2023-03-17T02:09:59.552Z,150211.00
2023-03-17T02:12:28.211Z,150207.22
2023-03-17T02:14:54.158Z,150198.38
2023-03-17T02:17:22.279Z,150195.84
2023-03-17T02:19:48.698Z,150216.03
2023-03-17T02:22:16.490Z,150193.34
2023-03-17T02:24:50.520Z,150180.72
2023-03-17T02:27:25.558Z,150195.84
2023-03-17T02:29:51.388Z,150194.59
2023-03-17T02:32:19.006Z,150194.59
2023-03-17T02:34:47.979Z,150203.44
2023-03-17T02:37:15.328Z,150199.63
2023-03-17T02:39:41.920Z,150171.91
2023-03-17T02:42:08.372Z,150205.97
2023-03-17T02:44:34.521Z,150198.38
2023-03-17T02:47:00.586Z,150184.53
2023-03-17T02:49:27.065Z,150199.63
2023-03-17T02:51:53.333Z,150180.72
2023-03-17T02:54:19.248Z,150168.13
2023-03-17T02:56:45.089Z,150158.03
2023-03-17T02:59:11.051Z,150163.06
2023-03-17T03:01:38.725Z,150187.03
2023-03-17T03:04:06.266Z,150179.44
2023-03-17T03:06:32.604Z,150188.31
2023-03-17T03:08:58.677Z,150173.16
2023-03-17T03:11:24.787Z,150180.72
2023-03-17T03:13:51.160Z,150170.66
2023-03-17T03:16:17.152Z,150179.44
2023-03-17T03:18:43.415Z,150184.53
2023-03-17T03:21:09.856Z,150181.97
2023-03-17T03:23:35.824Z,150203.44
2023-03-17T03:26:01.656Z,150231.16
2023-03-17T03:28:27.711Z,150212.25
2023-03-17T03:30:53.639Z,150234.94
2023-03-17T03:33:19.486Z,150222.34
2023-03-17T03:35:45.253Z,150199.63
2023-03-17T03:38:12.397Z,150234.94
2023-03-17T03:40:38.497Z,150243.78
2023-03-17T03:43:19.855Z,150226.13
2023-03-17T03:45:48.538Z,150219.84
2023-03-17T03:48:14.341Z,150184.53
2023-03-17T03:50:40.232Z,150197.09
2023-03-17T03:53:06.529Z,150187.03
2023-03-17T03:55:32.424Z,150176.94
2023-03-17T03:57:58.223Z,150204.69
2023-03-17T04:00:24.208Z,150238.75
2023-03-17T04:02:50.485Z,150227.41
2023-03-17T04:05:17.824Z,150213.50
2023-03-17T04:07:44.359Z,150229.91
2023-03-17T04:10:11.653Z,150286.72
2023-03-17T04:12:39.568Z,150276.59
2023-03-17T04:15:08.322Z,150257.69
2023-03-17T04:17:35.152Z,150274.09
2023-03-17T04:20:00.994Z,150276.59
2023-03-17T04:22:27.021Z,150285.44
2023-03-17T04:24:52.800Z,150270.25
2023-03-17T04:27:18.635Z,150248.81
2023-03-17T04:29:44.552Z,150253.84
2023-03-17T04:32:14.204Z,150255.16
2023-03-17T04:34:40.762Z,150258.94
2023-03-17T04:37:07.927Z,150256.41
2023-03-17T04:39:33.668Z,150247.56
2023-03-17T04:41:59.505Z,150237.50
2023-03-17T04:44:25.479Z,150231.16
2023-03-17T04:46:51.874Z,150219.84
2023-03-17T04:49:19.903Z,150216.03
2023-03-17T04:51:45.699Z,150258.94
2023-03-17T04:54:11.720Z,150253.84
2023-03-17T04:56:37.806Z,150231.16
2023-03-17T04:59:03.803Z,150202.19
2023-03-17T05:01:29.668Z,150192.06
2023-03-17T05:03:55.519Z,150214.75
2023-03-17T05:06:21.394Z,150187.03
2023-03-17T05:08:47.205Z,150209.72
2023-03-17T05:11:13.971Z,150219.84
2023-03-17T05:13:43.179Z,150223.63
2023-03-17T05:16:10.279Z,150207.22
2023-03-17T05:18:37.131Z,150178.19
2023-03-17T05:21:04.251Z,150212.25
2023-03-17T05:23:30.254Z,150195.84
2023-03-17T05:25:56.110Z,150176.94
2023-03-17T05:28:22.604Z,150189.56
2023-03-17T05:30:49.361Z,150208.47
2023-03-17T05:33:15.916Z,150180.72
2023-03-17T05:35:42.428Z,150155.50
2023-03-17T05:38:11.085Z,150147.97
2023-03-17T05:40:37.356Z,150136.59
2023-03-17T05:43:05.019Z,150113.91
2023-03-17T05:45:32.559Z,150130.31
2023-03-17T05:47:58.725Z,150137.84
2023-03-17T05:50:25.296Z,150117.69
2023-03-17T05:52:51.625Z,150141.63
2023-03-17T05:55:18.537Z,150155.50
2023-03-17T05:57:44.739Z,150126.47
2023-03-17T06:00:12.779Z,150149.22
2023-03-17T06:02:39.654Z,150156.75
2023-03-17T06:05:07.760Z,150158.03
2023-03-17T06:07:50.942Z,150150.47
2023-03-17T06:10:19.298Z,150187.03
2023-03-17T06:12:45.401Z,150184.53
2023-03-17T06:15:11.231Z,150195.84
2023-03-17T06:17:37.064Z,150187.03
2023-03-17T06:20:04.722Z,150203.44
2023-03-17T06:22:31.002Z,150217.28
2023-03-17T06:24:57.048Z,150231.16
2023-03-17T06:27:22.883Z,150228.66
2023-03-17T06:29:48.616Z,150224.88
2023-03-17T06:32:20.603Z,150240.03
2023-03-17T06:34:50.455Z,150281.63
2023-03-17T06:37:16.305Z,150261.44
2023-03-17T06:39:42.807Z,150266.50
2023-03-17T06:42:09.090Z,150265.22
2023-03-17T06:44:35.657Z,150252.59
2023-03-17T06:47:01.850Z,150271.50
2023-03-17T06:49:27.890Z,150291.78
2023-03-17T06:51:53.717Z,150329.63
2023-03-17T06:54:23.156Z,150320.78
2023-03-17T06:56:48.964Z,150344.78
2023-03-17T06:59:14.979Z,150346.03
2023-03-17T07:01:40.798Z,150361.16
2023-03-17T07:04:06.670Z,150390.19
2023-03-17T07:06:32.988Z,150411.63
2023-03-17T07:09:00.354Z,150450.75
2023-03-17T07:11:28.579Z,150454.56
2023-03-17T07:13:54.424Z,150445.72
2023-03-17T07:16:20.544Z,150435.63
2023-03-17T07:18:46.649Z,150455.84
2023-03-17T07:21:12.462Z,150459.59
2023-03-17T07:23:39.646Z,150474.75
2023-03-17T07:26:05.485Z,150479.78
2023-03-17T07:28:31.559Z,150478.53
2023-03-17T07:30:57.418Z,150493.69
2023-03-17T07:33:24.102Z,150539.13
2023-03-17T07:35:51.395Z,150500.00
2023-03-17T07:38:18.346Z,150516.41
2023-03-17T07:40:47.140Z,150527.78
2023-03-17T07:43:13.723Z,150585.84
2023-03-17T07:45:39.583Z,150558.06
2023-03-17T07:48:06.360Z,150588.38
2023-03-17T07:50:36.288Z,150616.16
2023-03-17T07:53:03.232Z,150637.63
2023-03-17T07:55:30.245Z,150646.44
2023-03-17T07:57:56.746Z,150647.72
2023-03-17T08:00:23.006Z,150664.13
2023-03-17T08:03:06.978Z,150676.78
2023-03-17T08:05:35.075Z,150690.69
2023-03-17T08:08:00.942Z,150736.13
2023-03-17T08:10:26.781Z,150750.03
2023-03-17T08:12:53.219Z,150755.06
2023-03-17T08:15:19.052Z,150784.16
2023-03-17T08:17:44.930Z,150796.81
2023-03-17T08:20:11.312Z,150798.06
2023-03-17T08:22:37.123Z,150823.31
2023-03-17T08:25:03.124Z,150817.00
2023-03-17T08:27:28.958Z,150843.53
2023-03-17T08:29:55.067Z,150849.88
2023-03-17T08:32:21.908Z,150870.09
2023-03-17T08:34:48.551Z,150872.63
2023-03-17T08:37:14.329Z,150852.41
2023-03-17T08:39:40.587Z,150897.91
2023-03-17T08:42:06.502Z,150905.53
2023-03-17T08:44:32.937Z,150920.69
2023-03-17T08:46:58.918Z,150910.56
2023-03-17T08:49:26.480Z,150963.66
2023-03-17T08:51:52.571Z,150982.63
2023-03-17T08:54:18.384Z,150995.28
2023-03-17T08:56:44.193Z,151016.75
2023-03-17T08:59:10.055Z,151058.47
2023-03-17T09:01:36.889Z,151066.09
2023-03-17T09:04:02.796Z,151098.94
2023-03-17T09:06:28.653Z,151114.13
2023-03-17T09:08:54.651Z,151153.38
2023-03-17T09:11:24.017Z,151182.44
2023-03-17T09:13:50.003Z,151186.22
2023-03-17T09:16:17.300Z,151157.16
2023-03-17T09:18:44.327Z,151219.09
2023-03-17T09:21:12.088Z,151234.31
2023-03-17T09:23:41.102Z,151269.72
2023-03-17T09:26:08.159Z,151255.81
2023-03-17T09:28:33.947Z,151330.44
2023-03-17T09:31:01.641Z,151360.88
2023-03-17T09:33:28.452Z,151374.81
2023-03-17T09:35:56.345Z,151397.59
2023-03-17T09:38:24.074Z,151453.28
2023-03-17T09:41:02.905Z,151512.78
2023-03-17T09:44:06.003Z,151529.25
2023-03-17T09:46:47.204Z,151522.94
2023-03-17T09:49:19.829Z,151531.81
2023-03-17T09:51:46.592Z,151562.19
2023-03-17T09:54:18.789Z,151614.09
2023-03-17T09:56:50.628Z,151628.06
2023-03-17T09:59:37.339Z,151673.63
2023-03-17T10:02:28.852Z,151749.72
2023-03-17T10:04:56.417Z,151752.25
2023-03-17T10:07:35.569Z,151738.25
2023-03-17T10:10:04.996Z,151738.25
2023-03-17T10:12:40.454Z,151752.25
2023-03-17T10:15:25.048Z,151787.75
2023-03-17T10:17:52.652Z,151875.19
2023-03-17T10:20:32.487Z,151848.56
2023-03-17T10:23:14.366Z,151956.31
2023-03-17T10:25:40.808Z,152027.31
2023-03-17T10:28:11.494Z,152076.78
2023-03-17T10:30:38.251Z,152117.41
2023-03-17T10:33:08.757Z,152042.53
2023-03-17T10:35:38.528Z,151963.94
2023-03-17T10:38:20.671Z,152019.72
2023-03-17T10:40:55.773Z,152037.47
2023-03-17T10:43:26.995Z,152053.97
2023-03-17T10:46:01.947Z,152092.00
2023-03-17T10:48:30.009Z,152196.03
2023-03-17T10:51:00.270Z,152212.53
2023-03-17T10:53:27.433Z,152380.06
2023-03-17T10:55:56.889Z,152414.34
2023-03-17T10:58:54.271Z,152438.50
2023-03-17T11:01:23.094Z,152499.44
2023-03-17T11:03:49.070Z,152420.72
2023-03-17T11:06:18.379Z,152402.91
2023-03-17T11:08:54.928Z,152284.84
2023-03-17T11:11:33.907Z,152336.91
2023-03-17T11:14:14.729Z,152361.03
2023-03-17T11:17:03.097Z,152480.38
2023-03-17T11:19:38.112Z,152480.38
2023-03-17T11:22:37.025Z,152435.97
2023-03-17T11:25:20.257Z,152349.59
2023-03-17T11:28:06.269Z,152401.66
2023-03-17T11:30:37.328Z,152541.38
2023-03-17T11:33:15.263Z,152598.50
2023-03-17T11:35:57.909Z,152697.63
2023-03-17T11:38:32.291Z,152560.41
2023-03-17T11:41:10.792Z,152433.44
2023-03-17T11:44:13.479Z,152433.44
2023-03-17T11:46:54.620Z,152414.34
2023-03-17T11:49:35.314Z,152425.81
2023-03-17T11:52:27.843Z,152374.97
2023-03-17T11:55:21.718Z,152248.06
2023-03-17T11:58:04.875Z,152262.03
2023-03-17T12:00:34.636Z,152273.47
2023-03-17T12:03:03.478Z,152178.28
2023-03-17T12:05:29.911Z,152229.03
2023-03-17T12:08:08.238Z,152166.88
2023-03-17T12:10:51.666Z,152151.66
2023-03-17T12:13:28.785Z,152080.56
2023-03-17T12:16:08.002Z,152118.66
2023-03-17T12:18:35.807Z,152127.56
2023-03-17T12:21:11.255Z,152185.91
2023-03-17T12:23:39.730Z,152166.88
2023-03-17T12:26:14.051Z,152173.22
2023-03-17T12:28:52.517Z,152269.63
2023-03-17T12:31:27.391Z,152387.69
2023-03-17T12:34:19.692Z,152354.66
2023-03-17T12:36:48.004Z,152273.47
2023-03-17T12:39:32.270Z,152329.31
2023-03-17T12:42:26.450Z,152286.13
2023-03-17T12:45:21.622Z,152189.72
2023-03-17T12:48:09.198Z,152260.75
2023-03-17T12:51:05.927Z,152235.41
2023-03-17T12:53:33.736Z,152305.16
2023-03-17T12:56:18.344Z,152317.84
2023-03-17T12:58:49.069Z,152338.16
2023-03-17T13:01:31.669Z,152363.56
2023-03-17T13:04:13.049Z,152357.19
2023-03-17T13:06:47.522Z,152438.50
2023-03-17T13:09:56.674Z,152494.38
2023-03-17T13:12:54.217Z,152536.25
2023-03-17T13:15:27.363Z,152449.91
2023-03-17T13:18:11.552Z,152306.41
2023-03-17T13:20:42.501Z,152256.97
2023-03-17T13:23:13.739Z,152253.16
2023-03-17T13:25:44.735Z,152286.13
2023-03-17T13:28:13.158Z,152335.63
2023-03-17T13:30:39.151Z,152409.28
2023-03-17T13:33:08.775Z,152461.34
2023-03-17T13:36:05.252Z,152452.50
2023-03-17T13:38:42.984Z,152519.75
2023-03-17T13:41:33.761Z,152470.25
2023-03-17T13:44:28.728Z,152466.41
2023-03-17T13:46:54.612Z,152458.81
2023-03-17T13:49:26.857Z,152420.72
2023-03-17T13:52:13.175Z,152387.69
2023-03-17T13:54:48.950Z,152456.28
2023-03-17T13:57:27.391Z,152477.84
2023-03-17T14:00:08.649Z,152535.00
2023-03-17T14:02:38.566Z,152448.63
2023-03-17T14:05:17.569Z,152430.88
2023-03-17T14:07:49.667Z,152401.66
2023-03-17T14:10:18.970Z,152461.34
2023-03-17T14:13:22.635Z,152526.13
2023-03-17T14:16:06.180Z,152485.47
2023-03-17T14:18:37.616Z,152545.16
2023-03-17T14:21:08.857Z,152555.31
2023-03-17T14:23:36.601Z,152526.13
2023-03-17T14:26:04.402Z,152575.63
2023-03-17T14:28:32.864Z,152561.69
2023-03-17T14:31:01.843Z,152501.97
2023-03-17T14:33:30.002Z,152453.75
2023-03-17T14:36:01.195Z,152523.59
2023-03-17T14:38:32.468Z,152475.31
2023-03-17T14:41:05.875Z,152455.03
2023-03-17T14:43:33.807Z,152419.47
2023-03-17T14:46:03.197Z,152430.88
2023-03-17T14:48:35.001Z,152410.56
2023-03-17T14:51:22.533Z,152371.16
2023-03-17T14:53:51.682Z,152377.50
2023-03-17T14:56:26.643Z,152387.69
2023-03-17T14:58:52.759Z,152362.31
2023-03-17T15:01:38.946Z,152355.94
2023-03-17T15:04:13.060Z,152297.56
2023-03-17T15:06:53.952Z,152268.34
2023-03-17T15:09:56.904Z,152230.28
2023-03-17T15:35:44.263Z,152013.34
2023-03-17T15:38:10.754Z,151984.22
2023-03-17T15:40:36.906Z,151986.75
2023-03-17T15:43:03.149Z,151962.63
2023-03-17T15:45:28.947Z,151952.50
2023-03-17T15:47:55.046Z,151933.50
2023-03-17T15:50:25.358Z,151908.13
2023-03-17T15:53:00.302Z,151877.72
2023-03-17T15:55:29.131Z,151887.84
2023-03-17T15:57:56.029Z,151881.50
2023-03-17T16:00:23.698Z,151866.31
2023-03-17T16:02:54.904Z,151840.97
2023-03-17T16:05:23.778Z,151832.06
2023-03-17T16:07:49.760Z,151778.84
2023-03-17T16:10:19.043Z,151763.63
2023-03-17T16:12:45.614Z,151742.06
2023-03-17T16:15:23.129Z,151730.69
2023-03-17T16:17:53.071Z,151753.53
2023-03-17T16:20:39.551Z,151726.84
2023-03-17T16:23:18.122Z,151724.31
2023-03-17T16:25:45.313Z,151745.84
2023-03-17T16:28:18.235Z,151725.56
2023-03-17T16:30:45.961Z,151716.72
2023-03-17T16:33:20.009Z,151686.31
2023-03-17T16:35:49.697Z,151674.91
2023-03-17T16:38:18.249Z,151658.47
2023-03-17T16:40:50.351Z,151616.63
2023-03-17T16:43:26.343Z,151623.00
2023-03-17T16:45:57.787Z,151595.13
2023-03-17T16:48:24.766Z,151605.28
2023-03-17T16:50:50.900Z,151593.84
2023-03-17T16:53:17.240Z,151605.28
2023-03-17T16:55:43.968Z,151606.53
2023-03-17T16:58:18.975Z,151616.63
2023-03-17T17:00:46.543Z,151620.44
2023-03-17T17:03:13.552Z,151601.44
2023-03-17T17:05:40.115Z,151578.66
2023-03-17T17:08:06.744Z,151557.13
2023-03-17T17:10:34.077Z,151582.44
2023-03-17T17:13:01.216Z,151545.72
2023-03-17T17:15:28.939Z,151541.91
2023-03-17T17:18:00.367Z,151514.09
2023-03-17T17:20:34.489Z,151516.63
2023-03-17T17:23:01.621Z,151519.13
2023-03-17T17:25:28.775Z,151497.63
2023-03-17T17:27:55.655Z,151467.22
2023-03-17T17:30:27.432Z,151473.53
2023-03-17T17:32:54.926Z,151510.25
2023-03-17T17:35:20.925Z,151483.69
2023-03-17T17:37:46.717Z,151455.81
2023-03-17T17:40:16.708Z,151450.75
2023-03-17T17:42:45.599Z,151455.81
2023-03-17T17:45:13.159Z,151445.72
2023-03-17T17:47:38.946Z,151421.63
2023-03-17T17:50:06.264Z,151434.31
2023-03-17T17:52:32.137Z,151445.72
2023-03-17T17:54:59.040Z,151438.09
2023-03-17T17:57:24.997Z,151429.25
2023-03-17T17:59:50.847Z,151433.03
2023-03-17T18:02:16.714Z,151445.72
2023-03-17T18:04:42.612Z,151425.47
2023-03-17T18:07:08.842Z,151453.28
2023-03-17T18:09:34.917Z,151440.63
2023-03-17T18:12:00.786Z,151445.72
2023-03-17T18:14:27.035Z,151433.03
2023-03-17T18:16:53.032Z,151446.97
2023-03-17T18:19:19.200Z,151414.06
2023-03-17T18:21:46.401Z,151417.84
2023-03-17T18:24:14.041Z,151422.88
2023-03-17T18:26:40.939Z,151396.34
2023-03-17T18:29:08.528Z,151416.56
2023-03-17T18:31:40.921Z,151424.19
2023-03-17T18:34:42.627Z,151397.59
2023-03-17T18:37:13.301Z,151417.84
2023-03-17T18:39:40.225Z,151409.00
2023-03-17T18:42:06.628Z,151417.84
2023-03-17T18:44:32.455Z,151429.25
2023-03-17T18:46:58.366Z,151411.53
2023-03-17T18:49:26.437Z,151420.38
2023-03-17T18:51:53.689Z,151407.75
2023-03-17T18:54:19.981Z,151406.47
2023-03-17T18:56:45.811Z,151393.81
2023-03-17T18:59:11.638Z,151392.53
2023-03-17T19:01:37.631Z,151403.91
2023-03-17T19:04:04.974Z,151421.63
2023-03-17T19:06:31.336Z,151373.56
2023-03-17T19:08:57.341Z,151379.88
2023-03-17T19:11:23.812Z,151381.13
2023-03-17T19:13:50.727Z,151354.56
2023-03-17T19:16:18.098Z,151331.72
2023-03-17T19:18:44.840Z,151315.31
2023-03-17T19:21:11.547Z,151319.09
2023-03-17T19:23:38.379Z,151315.31
2023-03-17T19:26:05.464Z,151306.41
2023-03-17T19:28:31.726Z,151291.22
2023-03-17T19:30:58.076Z,151297.59
2023-03-17T19:33:23.986Z,151305.16
2023-03-17T19:35:54.088Z,151300.13
2023-03-17T19:38:19.958Z,151301.38
2023-03-17T19:40:45.766Z,151305.16
2023-03-17T19:43:11.632Z,151297.59
2023-03-17T19:45:37.470Z,151292.50
2023-03-17T19:48:03.580Z,151307.69
2023-03-17T19:50:31.004Z,151308.94
2023-03-17T19:52:56.917Z,151311.47
2023-03-17T19:55:23.877Z,151284.91
2023-03-17T19:57:50.882Z,151274.78
2023-03-17T20:00:17.694Z,151296.28
2023-03-17T20:02:44.041Z,151273.50
2023-03-17T20:05:10.524Z,151254.53
2023-03-17T20:07:36.659Z,151288.72
2023-03-17T20:10:03.674Z,151284.91
2023-03-17T20:12:31.931Z,151277.31
2023-03-17T20:14:59.692Z,151255.81
2023-03-17T20:17:26.060Z,151277.31
2023-03-17T20:19:52.306Z,151253.28
2023-03-17T20:22:19.032Z,151254.53
2023-03-17T20:24:45.054Z,151246.97
2023-03-17T20:27:14.514Z,151241.88
2023-03-17T20:29:42.238Z,151262.16
2023-03-17T20:32:14.058Z,151245.69
2023-03-17T20:34:42.491Z,151258.31
2023-03-17T20:37:09.751Z,151276.03
2023-03-17T20:39:36.559Z,151245.69
2023-03-17T20:42:07.502Z,151233.03
2023-03-17T20:44:33.346Z,151212.81
2023-03-17T20:46:59.228Z,151258.31
2023-03-17T20:49:25.128Z,151236.81
2023-03-17T20:51:51.005Z,151259.59
2023-03-17T20:54:17.392Z,151263.41
2023-03-17T20:56:44.812Z,151255.81
2023-03-17T20:59:12.692Z,151248.22
2023-03-17T21:01:39.593Z,151248.22
2023-03-17T21:04:08.217Z,151241.88
2023-03-17T21:06:35.615Z,151234.31
2023-03-17T21:09:03.974Z,151253.28
2023-03-17T21:11:30.546Z,151268.47
2023-03-17T21:13:56.519Z,151224.16
2023-03-17T21:16:27.367Z,151212.81
2023-03-17T21:18:53.917Z,151217.84
2023-03-17T21:21:21.037Z,151209.03
2023-03-17T21:23:47.102Z,151229.25
2023-03-17T21:26:14.077Z,151229.25
2023-03-17T21:28:41.716Z,151219.09
2023-03-17T21:31:08.738Z,151229.25
2023-03-17T21:33:34.801Z,151230.50
2023-03-17T21:36:01.174Z,151217.84
2023-03-17T21:38:27.722Z,151215.31
2023-03-17T21:40:57.254Z,151205.19
2023-03-17T21:43:23.894Z,151191.31
2023-03-17T21:45:50.800Z,151228.00
2023-03-17T21:48:16.902Z,151215.31
2023-03-17T21:50:43.577Z,151230.50
2023-03-17T21:53:13.244Z,151240.59
2023-03-17T21:55:39.394Z,151212.81
2023-03-17T21:58:05.229Z,151224.16
2023-03-17T22:00:42.724Z,151187.47
2023-03-17T22:03:10.891Z,151205.19
2023-03-17T22:05:36.783Z,151202.66
2023-03-17T22:08:02.572Z,151202.66
2023-03-17T22:10:28.341Z,151190.03
2023-03-17T22:12:54.140Z,151141.97
2023-03-17T22:15:20.599Z,151126.78
2023-03-17T22:17:46.421Z,151134.34
2023-03-17T22:20:12.465Z,151124.25
2023-03-17T22:22:38.333Z,151119.22
2023-03-17T22:25:05.547Z,151104.03
2023-03-17T22:27:32.837Z,151100.25
2023-03-17T22:29:58.683Z,151095.16
2023-03-17T22:32:24.762Z,151090.09
2023-03-17T22:34:50.587Z,151083.78
2023-03-17T22:37:16.624Z,151076.19
2023-03-17T22:39:42.505Z,151064.84
2023-03-17T22:42:08.429Z,151061.00
2023-03-17T22:44:34.303Z,151034.47
2023-03-17T22:47:00.212Z,151023.06
2023-03-17T22:49:26.189Z,151014.25
2023-03-17T22:51:52.123Z,151021.81
2023-03-17T22:54:18.029Z,151016.75
2023-03-17T22:56:44.217Z,151031.94
2023-03-17T22:59:10.699Z,151029.44
2023-03-17T23:01:36.621Z,151007.91
2023-03-17T23:04:02.515Z,151010.47
2023-03-17T23:06:28.398Z,150977.59
2023-03-17T23:08:54.308Z,150972.50
2023-03-17T23:11:23.553Z,151004.09
2023-03-17T23:13:50.663Z,150969.97
2023-03-17T23:16:16.812Z,150944.72
2023-03-17T23:18:46.526Z,150967.44
2023-03-17T23:21:21.970Z,150957.38
2023-03-17T23:23:48.685Z,150909.31
2023-03-17T23:26:15.462Z,150930.78
2023-03-17T23:28:43.583Z,150933.31
2023-03-17T23:31:10.277Z,150914.34
2023-03-17T23:33:38.414Z,150889.09
2023-03-17T23:36:04.628Z,150889.09
2023-03-17T23:38:30.500Z,150886.53
2023-03-17T23:40:56.724Z,150891.63
2023-03-17T23:43:22.956Z,150870.09
2023-03-17T23:45:54.433Z,150861.22
2023-03-17T23:48:21.408Z,150880.19
2023-03-17T23:50:52.086Z,150896.66
2023-03-17T23:53:18.865Z,150906.78
2023-03-17T23:55:45.030Z,150908.06
2023-03-17T23:58:11.659Z,150892.88
